Time;durP1;ratioP1;P1;durP2;ratioP2;P2;SDS_P1;SDS_P2;PMS_P1;PMS_P2;Temp;Humidity;BMP_temperature;BMP_pressure;BME280_temperature;BME280_humidity;BME280_pressure;Samples;Min_cycle;Max_cycle;Signal;HPM_P1;HPM_P2
2022/01/02 00:00:14;;;;;;;17.02;7.63;;;5.60;99.90;;;;;;5026283;28;20567;-72
2022/01/02 00:02:41;;;;;;;25.00;8.18;;;5.70;99.90;;;;;;5026641;28;20181;-73
2022/01/02 00:05:12;;;;;;;23.92;8.57;;;5.70;99.90;;;;;;5024936;28;20185;-72
2022/01/02 00:07:51;;;;;;;14.57;7.85;;;5.70;99.90;;;;;;5031672;28;20524;-72
2022/01/02 00:10:21;;;;;;;41.80;9.05;;;5.60;99.90;;;;;;5019225;28;20172;-72
2022/01/02 00:12:51;;;;;;;27.23;7.68;;;5.60;99.90;;;;;;5028576;28;20209;-72
2022/01/02 00:15:20;;;;;;;53.63;9.57;;;5.50;99.90;;;;;;5023978;28;20276;-72
2022/01/02 00:17:49;;;;;;;39.78;10.05;;;5.50;99.90;;;;;;5059123;28;20428;-72
2022/01/02 00:20:16;;;;;;;23.52;7.63;;;5.40;99.90;;;;;;5023924;28;20203;-72
2022/01/02 00:22:48;;;;;;;65.93;9.98;;;5.40;99.90;;;;;;5028336;28;20654;-72
2022/01/02 00:25:25;;;;;;;69.15;10.73;;;5.40;99.90;;;;;;5031165;28;20311;-71
2022/01/02 00:27:52;;;;;;;18.88;7.35;;;5.30;99.90;;;;;;5024221;28;20177;-72
2022/01/02 00:30:18;;;;;;;60.60;13.23;;;5.40;99.90;;;;;;5024267;28;20184;-72
2022/01/02 00:32:44;;;;;;;20.77;8.50;;;5.40;99.90;;;;;;5027963;28;20185;-71
2022/01/02 00:35:10;;;;;;;111.82;13.25;;;5.40;99.90;;;;;;5026840;28;20263;-72
2022/01/02 00:37:36;;;;;;;93.60;11.27;;;5.50;99.90;;;;;;5021115;28;20675;-72
2022/01/02 00:40:03;;;;;;;114.95;12.43;;;5.50;99.90;;;;;;5035883;28;20197;-71
2022/01/02 00:42:34;;;;;;;58.03;11.43;;;5.40;99.90;;;;;;5025479;28;20498;-72
2022/01/02 00:45:07;;;;;;;84.78;11.68;;;5.40;99.90;;;;;;5024408;28;20199;-72
2022/01/02 00:47:35;;;;;;;116.15;14.20;;;5.30;99.90;;;;;;5030322;28;20183;-72
2022/01/02 00:50:13;;;;;;;67.13;11.85;;;5.30;99.90;;;;;;5028923;28;20176;-73
2022/01/02 00:52:45;;;;;;;99.88;14.10;;;5.30;99.90;;;;;;5025834;28;20235;-72
2022/01/02 00:55:19;;;;;;;103.95;13.32;;;5.30;99.90;;;;;;5030826;28;20190;-72
2022/01/02 00:57:58;;;;;;;94.03;13.68;;;5.30;99.90;;;;;;5035676;28;20184;-72
2022/01/02 01:00:24;;;;;;;101.45;13.30;;;5.20;99.90;;;;;;5034269;28;20208;-72
2022/01/02 01:02:53;;;;;;;70.47;11.70;;;5.30;99.90;;;;;;5030009;28;20186;-72
2022/01/02 01:05:33;;;;;;;68.22;10.57;;;5.30;99.90;;;;;;5019020;28;20180;-72
2022/01/02 01:08:05;;;;;;;22.08;10.73;;;5.30;99.90;;;;;;5027327;28;20205;-72
2022/01/02 01:10:34;;;;;;;15.55;9.23;;;5.30;99.90;;;;;;5029612;28;20255;-72
2022/01/02 01:13:05;;;;;;;14.55;8.57;;;5.40;99.90;;;;;;5040049;28;20180;-72
2022/01/02 01:15:32;;;;;;;79.75;9.88;;;5.40;99.90;;;;;;5029408;28;20184;-72
2022/01/02 01:18:01;;;;;;;84.90;11.00;;;5.40;99.90;;;;;;5029712;28;20541;-72
2022/01/02 01:20:34;;;;;;;25.70;8.15;;;5.30;99.90;;;;;;5029961;28;20213;-72
2022/01/02 01:23:00;;;;;;;31.10;8.02;;;5.20;99.90;;;;;;5033084;28;20179;-72
2022/01/02 01:25:25;;;;;;;47.17;10.93;;;5.20;99.90;;;;;;5030029;28;20537;-72
2022/01/02 01:27:53;;;;;;;29.98;8.77;;;5.20;99.90;;;;;;5036943;28;20192;-72
2022/01/02 01:30:21;;;;;;;35.17;9.57;;;5.20;99.90;;;;;;5034798;28;20188;-72
2022/01/02 01:32:47;;;;;;;35.00;9.25;;;5.20;99.90;;;;;;5030718;28;20199;-72
2022/01/02 01:35:14;;;;;;;20.77;7.80;;;5.30;99.90;;;;;;5027122;28;20196;-72
2022/01/02 01:37:39;;;;;;;37.88;9.75;;;5.30;99.90;;;;;;5031806;28;20177;-72
2022/01/02 01:40:07;;;;;;;36.30;9.25;;;5.10;99.90;;;;;;5029899;28;20197;-72
2022/01/02 01:42:37;;;;;;;13.18;7.60;;;5.00;99.90;;;;;;5024233;28;20180;-72
2022/01/02 01:47:57;;;;;;;26.30;8.18;;;5.10;99.90;;;;;;5026796;28;20224;-73
2022/01/02 01:50:27;;;;;;;24.27;8.20;;;5.20;99.90;;;;;;5022811;28;20184;-72
2022/01/02 01:52:53;;;;;;;26.45;7.88;;;5.10;99.90;;;;;;5034777;28;20318;-72
2022/01/02 01:55:19;;;;;;;33.05;9.45;;;5.00;99.90;;;;;;5025298;28;20259;-73
2022/01/02 01:57:46;;;;;;;36.47;7.78;;;5.00;99.90;;;;;;5033891;28;20263;-72
2022/01/02 02:00:16;;;;;;;23.58;7.97;;;5.10;99.90;;;;;;5022278;28;20207;-72
2022/01/02 02:02:42;;;;;;;7.88;7.03;;;5.20;99.90;;;;;;5029316;28;20187;-72
2022/01/02 02:05:09;;;;;;;10.52;7.88;;;5.20;99.90;;;;;;5027610;28;20252;-72
2022/01/02 02:07:42;;;;;;;14.27;7.55;;;5.20;99.90;;;;;;5029589;28;20486;-72
2022/01/02 02:10:16;;;;;;;42.10;10.18;;;5.20;99.90;;;;;;5033284;28;20190;-72
2022/01/02 02:12:45;;;;;;;26.92;8.40;;;5.20;99.90;;;;;;5033136;28;20188;-72
2022/01/02 02:15:14;;;;;;;48.72;10.10;;;5.10;99.90;;;;;;5030383;28;20267;-73
2022/01/02 02:17:42;;;;;;;14.07;7.65;;;5.20;99.90;;;;;;5026768;28;20263;-72
2022/01/02 02:20:29;;;;;;;37.45;8.95;;;5.20;99.90;;;;;;5031834;28;20249;-72
2022/01/02 02:22:57;;;;;;;19.65;8.43;;;5.30;99.90;;;;;;5031738;28;20662;-72
2022/01/02 02:25:25;;;;;;;49.60;9.30;;;5.30;99.90;;;;;;5020264;28;20291;-72
2022/01/02 02:28:00;;;;;;;18.98;8.00;;;5.30;99.90;;;;;;5030833;28;20189;-72
2022/01/02 02:30:28;;;;;;;58.25;9.88;;;5.30;99.90;;;;;;5022986;28;20671;-72
2022/01/02 02:32:56;;;;;;;20.13;8.75;;;5.20;99.90;;;;;;5025538;28;20568;-72
2022/01/02 02:35:22;;;;;;;27.90;8.90;;;5.20;99.90;;;;;;5031793;28;20200;-72
2022/01/02 02:37:48;;;;;;;12.80;7.85;;;5.20;99.90;;;;;;5030184;28;20223;-73
2022/01/02 02:40:16;;;;;;;11.52;7.85;;;5.20;99.90;;;;;;5029526;28;20549;-72
2022/01/02 02:42:51;;;;;;;52.58;9.23;;;5.20;99.90;;;;;;5027078;28;20177;-72
2022/01/02 02:51:12;;;;;;;40.08;9.05;;;4.90;99.90;;;;;;5029838;28;20203;-72
2022/01/02 02:53:44;;;;;;;19.38;7.93;;;4.90;99.90;;;;;;5030768;28;20195;-72
2022/01/02 02:56:20;;;;;;;32.05;8.80;;;4.90;99.90;;;;;;5026153;28;20677;-72
2022/01/02 02:58:49;;;;;;;32.08;8.68;;;4.90;99.90;;;;;;5041153;28;20258;-72
2022/01/02 03:01:18;;;;;;;11.80;7.05;;;4.80;99.90;;;;;;5025786;28;20250;-72
2022/01/02 03:03:44;;;;;;;24.23;8.65;;;4.90;99.90;;;;;;5023744;28;20192;-72
2022/01/02 03:06:11;;;;;;;33.90;8.77;;;5.00;99.90;;;;;;5032358;28;20187;-72
2022/01/02 03:08:37;;;;;;;16.70;7.60;;;4.90;99.90;;;;;;5033991;28;20658;-72
2022/01/02 03:11:06;;;;;;;40.55;9.05;;;4.90;99.90;;;;;;5030319;28;20691;-73
2022/01/02 03:13:31;;;;;;;24.75;7.20;;;4.90;99.90;;;;;;5032279;28;20180;-72
2022/01/02 03:15:57;;;;;;;27.25;8.38;;;5.00;99.90;;;;;;5032517;28;20208;-72
2022/01/02 03:18:22;;;;;;;18.55;8.07;;;4.90;99.90;;;;;;5023577;28;20582;-74
2022/01/02 03:20:48;;;;;;;28.48;8.07;;;4.80;99.90;;;;;;5024039;28;20284;-72
2022/01/02 03:23:14;;;;;;;53.58;9.07;;;4.90;99.90;;;;;;5026039;28;20271;-72
2022/01/02 03:25:39;;;;;;;70.60;9.93;;;4.80;99.90;;;;;;5028715;28;20666;-73
2022/01/02 03:28:05;;;;;;;39.58;9.27;;;4.80;99.90;;;;;;5026145;28;20185;-73
2022/01/02 03:30:31;;;;;;;61.35;10.88;;;4.70;99.90;;;;;;5025231;28;20279;-72
2022/01/02 03:32:56;;;;;;;31.00;9.73;;;4.70;99.90;;;;;;5033731;28;20188;-72
2022/01/02 03:35:22;;;;;;;24.98;7.97;;;4.70;99.90;;;;;;5028089;28;20291;-72
2022/01/02 03:37:48;;;;;;;31.42;8.60;;;4.80;99.90;;;;;;5029085;28;20214;-72
2022/01/02 03:40:13;;;;;;;38.90;8.77;;;4.80;99.90;;;;;;5025367;28;20208;-72
2022/01/02 03:42:41;;;;;;;67.15;11.27;;;4.70;99.90;;;;;;5028827;28;20274;-72
2022/01/02 03:45:07;;;;;;;60.70;10.20;;;4.70;99.90;;;;;;5023775;28;20187;-72
2022/01/02 03:47:32;;;;;;;37.50;8.40;;;4.60;99.90;;;;;;5025061;28;20189;-72
2022/01/02 03:49:58;;;;;;;31.27;7.35;;;4.60;99.90;;;;;;5034768;28;20209;-72
2022/01/02 03:52:25;;;;;;;46.83;8.90;;;4.60;99.90;;;;;;5030245;28;20342;-72
2022/01/02 03:54:50;;;;;;;30.67;9.00;;;4.60;99.90;;;;;;5028827;28;20330;-72
2022/01/02 03:57:16;;;;;;;42.55;7.47;;;4.60;99.90;;;;;;5037196;28;20180;-72
2022/01/02 03:59:42;;;;;;;23.80;7.38;;;4.60;99.90;;;;;;5032354;28;20228;-73
2022/01/02 04:02:07;;;;;;;12.75;6.05;;;4.60;99.90;;;;;;5026773;28;20295;-72
2022/01/02 04:04:33;;;;;;;26.75;7.63;;;4.70;99.90;;;;;;5021173;28;20181;-72
2022/01/02 04:06:59;;;;;;;19.77;7.78;;;4.60;99.90;;;;;;5019999;28;20184;-72
2022/01/02 04:09:24;;;;;;;42.28;8.90;;;4.60;99.90;;;;;;5033372;28;20212;-72
2022/01/02 04:11:50;;;;;;;24.67;8.52;;;4.50;99.90;;;;;;5028413;28;20227;-72
2022/01/02 04:14:17;;;;;;;32.30;8.90;;;4.50;99.90;;;;;;5027607;28;20266;-72
2022/01/02 04:16:42;;;;;;;8.40;6.97;;;4.50;99.90;;;;;;5025195;28;20193;-72
2022/01/02 04:19:08;;;;;;;28.90;7.80;;;4.40;99.90;;;;;;5045298;28;20702;-72
2022/01/02 04:21:33;;;;;;;16.53;6.40;;;4.50;99.90;;;;;;5029222;28;20207;-71
2022/01/02 04:23:59;;;;;;;33.85;7.20;;;4.40;99.90;;;;;;5028209;28;20184;-72
2022/01/02 04:26:25;;;;;;;18.10;7.33;;;4.50;99.90;;;;;;5032885;28;20216;-72
2022/01/02 04:28:50;;;;;;;12.90;6.20;;;4.40;99.90;;;;;;5036311;28;20628;-72
2022/01/02 04:31:16;;;;;;;23.23;7.20;;;4.50;99.90;;;;;;5022738;28;20578;-71
2022/01/02 04:33:41;;;;;;;17.67;6.53;;;4.50;99.90;;;;;;5029168;28;20185;-72
2022/01/02 04:36:07;;;;;;;23.80;7.07;;;4.40;99.90;;;;;;5033432;28;20204;-72
2022/01/02 04:38:35;;;;;;;30.33;6.80;;;4.40;99.90;;;;;;5029685;28;20275;-72
2022/01/02 04:41:00;;;;;;;30.02;7.57;;;4.40;99.90;;;;;;5030380;28;20228;-72
2022/01/02 04:43:26;;;;;;;20.37;6.57;;;4.40;99.90;;;;;;5032053;28;20204;-72
2022/01/02 04:45:51;;;;;;;15.50;6.90;;;4.30;99.90;;;;;;5027049;28;20180;-72
2022/01/02 04:48:17;;;;;;;17.13;6.93;;;4.20;99.90;;;;;;5028316;28;20279;-72
2022/01/02 04:50:43;;;;;;;28.50;6.43;;;4.30;99.90;;;;;;5024846;28;20205;-72
2022/01/02 04:53:08;;;;;;;24.13;6.80;;;4.30;99.90;;;;;;5025897;28;20223;-72
2022/01/02 04:55:34;;;;;;;17.35;6.75;;;4.30;99.90;;;;;;5030412;28;20651;-72
2022/01/02 04:58:00;;;;;;;33.13;6.37;;;4.30;99.90;;;;;;5028973;28;20215;-72
2022/01/02 05:00:26;;;;;;;34.30;6.37;;;4.30;99.90;;;;;;5028100;28;20208;-72
2022/01/02 05:02:52;;;;;;;17.60;6.20;;;4.20;99.90;;;;;;5030906;28;20707;-72
2022/01/02 05:05:18;;;;;;;18.53;6.20;;;4.20;99.90;;;;;;5027062;28;20302;-72
2022/01/02 05:07:45;;;;;;;26.23;6.13;;;4.20;99.90;;;;;;5024311;28;20177;-71
2022/01/02 05:10:11;;;;;;;10.30;5.67;;;4.20;99.90;;;;;;5024412;28;20258;-73
2022/01/02 05:12:37;;;;;;;15.63;5.00;;;4.30;99.90;;;;;;5026356;28;20636;-72
2022/01/02 05:15:03;;;;;;;19.50;5.33;;;4.30;99.90;;;;;;5024420;28;20270;-72
2022/01/02 05:17:29;;;;;;;12.88;5.07;;;4.30;99.90;;;;;;5029697;28;20270;-72
2022/01/02 05:19:54;;;;;;;18.50;5.32;;;4.40;99.90;;;;;;5029843;28;20247;-72
2022/01/02 05:22:20;;;;;;;28.35;6.50;;;4.30;99.90;;;;;;5029176;28;20203;-73
2022/01/02 05:24:46;;;;;;;24.05;5.53;;;4.30;99.90;;;;;;5026550;28;20199;-72
2022/01/02 05:27:11;;;;;;;29.45;7.10;;;4.20;99.90;;;;;;5028740;28;20177;-72
2022/01/02 05:29:37;;;;;;;11.00;5.10;;;4.10;99.90;;;;;;5028853;28;20196;-72
2022/01/02 05:32:03;;;;;;;18.75;5.97;;;4.10;99.90;;;;;;5025406;28;20707;-72
2022/01/02 05:34:28;;;;;;;27.02;6.63;;;4.20;99.90;;;;;;5033315;28;20185;-72
2022/01/02 05:36:54;;;;;;;17.63;6.15;;;4.20;99.90;;;;;;5029787;28;20196;-72
2022/01/02 05:39:21;;;;;;;42.55;7.13;;;4.20;99.90;;;;;;5029386;28;20196;-72
2022/01/02 05:41:48;;;;;;;15.40;5.57;;;4.20;99.90;;;;;;5025667;28;20275;-72
2022/01/02 05:44:14;;;;;;;24.85;6.35;;;4.10;99.90;;;;;;5026185;28;20188;-72
2022/01/02 05:46:41;;;;;;;23.70;6.18;;;4.10;99.90;;;;;;5029351;28;20234;-72
2022/01/02 05:49:07;;;;;;;29.60;6.40;;;4.10;99.90;;;;;;5032192;28;20188;-72
2022/01/02 05:51:32;;;;;;;9.40;5.13;;;4.10;99.90;;;;;;5030752;28;20200;-73
2022/01/02 05:53:58;;;;;;;26.33;5.77;;;4.10;99.90;;;;;;5032646;28;20180;-72
2022/01/02 05:56:24;;;;;;;9.67;5.30;;;4.10;99.90;;;;;;5017697;28;20765;-73
2022/01/02 05:58:49;;;;;;;9.15;5.47;;;4.00;99.90;;;;;;5023560;28;20196;-73
2022/01/02 06:01:15;;;;;;;6.77;4.83;;;4.10;99.90;;;;;;5020714;28;20231;-72
2022/01/02 06:03:41;;;;;;;45.73;6.97;;;4.00;99.90;;;;;;5028595;28;20675;-73
2022/01/02 06:06:06;;;;;;;8.47;5.97;;;3.90;99.90;;;;;;5027094;28;20541;-72
2022/01/02 06:08:32;;;;;;;19.53;5.80;;;3.90;99.90;;;;;;5028581;28;20585;-72
2022/01/02 06:10:57;;;;;;;14.97;5.83;;;3.90;99.90;;;;;;5028215;28;20201;-72
2022/01/02 06:13:23;;;;;;;17.70;6.17;;;3.90;99.90;;;;;;5038245;28;20715;-72
2022/01/02 06:15:49;;;;;;;16.45;6.35;;;3.90;99.90;;;;;;5030119;28;20180;-73
2022/01/02 06:18:15;;;;;;;16.57;5.67;;;3.90;99.90;;;;;;5026162;28;20195;-72
2022/01/02 06:20:41;;;;;;;23.33;6.03;;;4.00;99.90;;;;;;5031072;28;20215;-72
2022/01/02 06:23:06;;;;;;;13.13;5.43;;;4.00;99.90;;;;;;5028510;28;20181;-72
2022/01/02 06:25:33;;;;;;;5.95;5.30;;;3.90;99.90;;;;;;5030659;28;20176;-72
2022/01/02 06:27:59;;;;;;;9.80;5.43;;;3.90;99.90;;;;;;5025418;28;20193;-72
2022/01/02 06:30:25;;;;;;;7.63;5.27;;;4.00;99.90;;;;;;5026402;28;20274;-72
2022/01/02 06:32:55;;;;;;;6.10;4.88;;;3.90;99.90;;;;;;5024827;28;20180;-71
2022/01/02 06:35:29;;;;;;;29.73;6.35;;;4.00;99.90;;;;;;5022832;28;20188;-72
2022/01/02 06:37:56;;;;;;;26.93;6.87;;;3.90;99.90;;;;;;5025741;28;20590;-72
2022/01/02 06:40:23;;;;;;;18.77;5.70;;;3.80;99.90;;;;;;5035873;28;20208;-72
2022/01/02 06:42:49;;;;;;;9.73;6.23;;;3.70;99.90;;;;;;5020164;28;20188;-72
2022/01/02 06:45:15;;;;;;;10.80;5.40;;;3.70;99.90;;;;;;5025046;28;20255;-72
2022/01/02 06:47:40;;;;;;;10.53;5.23;;;3.70;99.90;;;;;;5025984;28;20252;-72
2022/01/02 06:50:07;;;;;;;15.47;6.57;;;3.80;99.90;;;;;;5032961;28;20251;-72
2022/01/02 06:52:33;;;;;;;5.60;5.20;;;3.70;99.90;;;;;;5055125;28;20179;-72
2022/01/02 06:54:58;;;;;;;11.20;5.17;;;3.70;99.90;;;;;;5020044;28;20260;-72
2022/01/02 06:57:24;;;;;;;13.90;5.80;;;3.80;99.90;;;;;;5029858;28;20189;-72
2022/01/02 06:59:50;;;;;;;14.97;5.90;;;3.80;99.90;;;;;;5028568;28;20214;-72
2022/01/02 07:02:17;;;;;;;5.78;5.28;;;3.80;99.90;;;;;;5022226;28;20246;-72
2022/01/02 07:04:42;;;;;;;7.57;5.37;;;3.80;99.90;;;;;;5026950;28;20186;-72
2022/01/02 07:07:08;;;;;;;11.13;5.27;;;3.80;99.90;;;;;;5040436;28;20736;-72
2022/01/02 07:09:34;;;;;;;5.18;4.78;;;3.80;99.90;;;;;;5026110;28;20192;-72
2022/01/02 07:12:00;;;;;;;25.92;6.40;;;3.90;99.90;;;;;;5025547;28;20243;-72
2022/01/02 07:14:27;;;;;;;12.18;5.45;;;3.90;99.90;;;;;;5029517;28;20219;-72
2022/01/02 07:16:56;;;;;;;14.63;5.80;;;3.70;99.90;;;;;;5031756;28;20177;-72
2022/01/02 07:19:22;;;;;;;7.70;5.27;;;3.70;99.90;;;;;;5022019;28;20223;-72
2022/01/02 07:21:49;;;;;;;6.43;5.17;;;3.70;99.90;;;;;;5021711;28;20668;-72
2022/01/02 07:24:14;;;;;;;19.73;5.80;;;3.80;99.90;;;;;;5031370;28;20195;-72
2022/01/02 07:26:40;;;;;;;14.33;6.50;;;3.70;99.90;;;;;;5027317;28;20180;-72
2022/01/02 07:29:06;;;;;;;11.03;5.60;;;3.60;99.90;;;;;;5026892;28;20183;-72
2022/01/02 07:31:32;;;;;;;17.77;6.03;;;3.60;99.90;;;;;;5032859;28;20205;-72
2022/01/02 07:33:57;;;;;;;14.20;6.37;;;3.60;99.90;;;;;;5023325;28;20224;-73
2022/01/02 07:36:23;;;;;;;11.13;5.40;;;3.70;99.90;;;;;;5020842;28;20181;-72
2022/01/02 07:38:48;;;;;;;19.57;6.63;;;3.70;99.90;;;;;;5024585;28;20211;-72
2022/01/02 07:41:14;;;;;;;16.37;6.43;;;3.80;99.90;;;;;;5028733;28;20196;-72
2022/01/02 07:43:40;;;;;;;22.40;6.80;;;3.70;99.90;;;;;;5026826;28;20185;-72
2022/01/02 07:46:06;;;;;;;7.40;6.17;;;3.80;99.90;;;;;;5028176;28;20255;-73
2022/01/02 07:48:32;;;;;;;9.00;6.80;;;3.80;99.90;;;;;;5020426;28;20267;-72
2022/01/02 07:50:57;;;;;;;7.13;5.87;;;3.80;99.90;;;;;;5033611;28;20228;-72
2022/01/02 07:53:23;;;;;;;12.17;6.30;;;3.90;99.90;;;;;;5016836;28;20254;-72
2022/01/02 07:55:49;;;;;;;6.10;5.60;;;4.00;99.90;;;;;;5027082;28;20255;-72
2022/01/02 07:58:15;;;;;;;23.10;6.60;;;4.00;99.90;;;;;;5030566;28;20176;-72
2022/01/02 08:00:41;;;;;;;14.33;6.23;;;4.10;99.90;;;;;;5033414;28;20291;-72
2022/01/02 08:03:06;;;;;;;25.87;7.20;;;4.10;99.90;;;;;;5034405;28;20689;-72
2022/01/02 08:05:32;;;;;;;10.83;5.37;;;4.00;99.90;;;;;;5023074;28;20176;-72
2022/01/02 08:07:58;;;;;;;15.13;6.03;;;4.00;99.90;;;;;;5022948;28;20212;-72
2022/01/02 08:10:25;;;;;;;11.80;5.67;;;4.00;99.90;;;;;;5024534;28;20457;-72
2022/01/02 08:12:51;;;;;;;25.77;6.10;;;3.90;99.90;;;;;;5030278;28;20176;-72
2022/01/02 08:15:18;;;;;;;7.33;5.67;;;4.00;99.90;;;;;;5028869;28;20184;-72
2022/01/02 08:17:43;;;;;;;16.50;5.70;;;4.00;99.90;;;;;;5029683;28;20204;-72
2022/01/02 08:20:09;;;;;;;5.50;5.00;;;4.10;99.90;;;;;;5035311;28;20212;-72
2022/01/02 08:22:35;;;;;;;6.47;4.43;;;4.10;99.90;;;;;;5027652;28;20226;-72
2022/01/02 08:25:02;;;;;;;7.03;4.20;;;4.20;99.90;;;;;;5026403;28;20260;-72
2022/01/02 08:27:28;;;;;;;4.53;4.22;;;4.30;99.90;;;;;;5026811;28;20782;-71
2022/01/02 08:29:53;;;;;;;5.13;4.63;;;4.40;99.90;;;;;;5027996;28;20259;-72
2022/01/02 08:32:19;;;;;;;4.60;4.30;;;4.50;99.90;;;;;;5031881;28;20678;-72
2022/01/02 08:34:45;;;;;;;4.80;4.20;;;4.60;99.90;;;;;;5024342;28;20235;-72
2022/01/02 08:37:11;;;;;;;8.40;4.70;;;4.60;99.90;;;;;;5028071;28;20607;-72
2022/01/02 08:39:38;;;;;;;5.72;4.45;;;4.50;99.90;;;;;;5031073;28;20486;-71
2022/01/02 08:42:04;;;;;;;4.43;4.10;;;4.60;99.90;;;;;;5023163;28;20193;-71
2022/01/02 08:44:30;;;;;;;4.85;4.55;;;4.50;99.90;;;;;;5031076;28;20184;-72
2022/01/02 08:46:55;;;;;;;5.22;4.82;;;4.40;99.90;;;;;;5061815;28;20173;-72
2022/01/02 08:49:22;;;;;;;4.90;4.40;;;4.50;99.90;;;;;;5027861;28;20224;-72
2022/01/02 08:51:47;;;;;;;5.18;4.72;;;4.40;99.90;;;;;;5035134;28;20319;-72
2022/01/02 08:54:13;;;;;;;5.28;4.78;;;4.50;99.90;;;;;;5033276;28;20286;-72
2022/01/02 08:56:39;;;;;;;4.97;4.68;;;4.70;99.90;;;;;;5031406;28;20182;-72
2022/01/02 08:59:04;;;;;;;4.53;4.22;;;4.60;99.90;;;;;;5031265;28;20204;-72
2022/01/02 09:01:30;;;;;;;6.75;4.70;;;4.80;99.90;;;;;;5029421;28;20227;-72
2022/01/02 09:03:55;;;;;;;6.03;5.30;;;4.90;99.90;;;;;;5033411;28;20443;-72
2022/01/02 09:06:21;;;;;;;5.00;4.57;;;5.00;99.90;;;;;;5031225;28;20541;-72
2022/01/02 09:08:47;;;;;;;5.72;5.13;;;5.20;99.90;;;;;;5019694;28;20259;-72
2022/01/02 09:11:12;;;;;;;4.70;4.40;;;5.40;99.90;;;;;;5033432;28;20673;-72
2022/01/02 09:13:38;;;;;;;5.53;4.72;;;5.80;99.90;;;;;;5031404;28;20196;-71
2022/01/02 09:16:03;;;;;;;4.68;4.38;;;6.00;99.90;;;;;;5029735;28;20180;-71
2022/01/02 09:18:29;;;;;;;5.85;4.45;;;6.40;99.90;;;;;;5027700;28;20259;-73
2022/01/02 09:20:55;;;;;;;5.25;4.75;;;6.40;99.90;;;;;;5027991;28;20202;-71
2022/01/02 09:23:20;;;;;;;4.72;4.38;;;6.40;99.90;;;;;;5033296;28;20188;-71
2022/01/02 09:25:46;;;;;;;4.78;4.38;;;6.80;99.90;;;;;;5025120;28;20177;-73
2022/01/02 09:28:12;;;;;;;5.07;4.72;;;7.00;99.90;;;;;;5024088;28;20179;-71
2022/01/02 09:30:37;;;;;;;5.13;4.80;;;7.10;99.90;;;;;;5025311;28;20254;-75
2022/01/02 09:33:08;;;;;;;4.97;4.63;;;7.00;99.90;;;;;;5024026;28;20652;-72
2022/01/02 09:35:38;;;;;;;5.60;5.10;;;6.60;99.90;;;;;;5025460;28;20172;-73
2022/01/02 09:38:04;;;;;;;5.28;4.82;;;6.50;99.90;;;;;;5022556;28;20180;-74
2022/01/02 09:40:31;;;;;;;5.45;5.05;;;6.30;99.90;;;;;;5024648;28;20243;-72
2022/01/02 09:42:58;;;;;;;5.82;4.40;;;6.20;99.90;;;;;;5023231;28;20174;-73
2022/01/02 09:45:25;;;;;;;6.15;5.65;;;6.20;99.90;;;;;;5028016;28;20180;-71
2022/01/02 09:47:51;;;;;;;5.75;5.30;;;6.10;99.90;;;;;;5029964;28;20176;-74
2022/01/02 09:50:18;;;;;;;5.07;4.68;;;6.10;99.90;;;;;;5029850;28;20203;-73
2022/01/02 09:52:44;;;;;;;4.95;4.57;;;6.40;99.90;;;;;;5029570;28;20188;-73
2022/01/02 09:55:11;;;;;;;4.82;4.53;;;6.70;99.90;;;;;;5027247;28;20188;-75
2022/01/02 09:57:42;;;;;;;5.72;5.32;;;7.10;99.90;;;;;;5021344;28;20851;-73
2022/01/02 10:00:08;;;;;;;5.40;5.00;;;7.10;99.90;;;;;;5020154;28;20591;-75
2022/01/02 10:02:52;;;;;;;5.30;4.90;;;7.30;99.90;;;;;;5029281;28;20526;-75
2022/01/02 10:05:18;;;;;;;5.65;5.25;;;7.50;99.90;;;;;;5024987;28;20183;-73
2022/01/02 10:07:44;;;;;;;5.43;5.03;;;7.30;99.90;;;;;;5025616;28;20540;-73
2022/01/02 10:10:11;;;;;;;6.40;5.80;;;7.40;99.90;;;;;;5027975;28;20188;-73
2022/01/02 10:12:37;;;;;;;6.22;5.80;;;7.00;99.90;;;;;;5030906;28;20187;-73
2022/01/02 10:15:25;;;;;;;5.47;5.07;;;6.80;99.90;;;;;;5029386;28;20187;-73
2022/01/02 10:18:01;;;;;;;7.20;6.60;;;6.50;99.90;;;;;;5026962;28;20583;-73
2022/01/02 10:20:36;;;;;;;6.75;6.15;;;6.50;99.90;;;;;;5024547;28;20196;-73
2022/01/02 10:23:12;;;;;;;6.60;6.00;;;6.40;99.90;;;;;;5030387;28;20722;-74
2022/01/02 10:25:55;;;;;;;7.28;6.68;;;6.30;99.90;;;;;;5025708;28;20188;-73
2022/01/02 10:28:41;;;;;;;7.28;6.63;;;6.20;99.90;;;;;;5024992;28;20667;-73
2022/01/02 10:31:15;;;;;;;7.97;7.28;;;5.90;99.90;;;;;;5026304;28;20201;-73
2022/01/02 10:33:51;;;;;;;7.57;6.90;;;5.90;99.90;;;;;;5020991;28;20173;-73
2022/01/02 10:36:30;;;;;;;6.93;6.25;;;5.80;99.90;;;;;;5022429;28;20175;-74
2022/01/02 10:39:02;;;;;;;7.40;6.80;;;5.90;99.90;;;;;;5021295;28;20193;-74
2022/01/02 10:41:33;;;;;;;7.47;6.88;;;6.00;99.90;;;;;;5027979;28;20264;-73
2022/01/02 10:44:29;;;;;;;7.97;7.05;;;6.10;99.90;;;;;;5026444;28;20191;-73
2022/01/02 10:47:16;;;;;;;7.20;6.60;;;6.20;99.90;;;;;;5022751;28;20276;-73
2022/01/02 10:50:03;;;;;;;7.47;6.80;;;6.60;99.90;;;;;;5030557;28;20729;-73
2022/01/02 10:52:33;;;;;;;8.30;7.50;;;6.90;99.90;;;;;;5028056;28;20210;-73
2022/01/02 10:55:05;;;;;;;8.10;7.40;;;7.30;99.90;;;;;;5024706;28;20181;-73
2022/01/02 10:57:32;;;;;;;7.95;7.25;;;7.60;99.90;;;;;;5024056;28;20180;-73
2022/01/02 10:59:59;;;;;;;7.28;6.57;;;7.90;99.90;;;;;;5023435;28;20565;-73
2022/01/02 11:02:26;;;;;;;6.88;6.35;;;8.10;99.90;;;;;;5023148;28;20197;-73
2022/01/02 11:05:04;;;;;;;6.75;6.15;;;8.10;99.90;;;;;;5019695;28;20197;-73
2022/01/02 11:07:58;;;;;;;6.97;6.38;;;8.20;99.90;;;;;;5032116;28;20254;-73
2022/01/02 11:10:25;;;;;;;6.45;5.95;;;8.40;99.90;;;;;;5019657;28;20247;-73
2022/01/02 11:12:52;;;;;;;6.57;5.97;;;8.40;99.90;;;;;;5028911;28;20565;-73
2022/01/02 11:15:21;;;;;;;6.65;6.15;;;9.60;99.90;;;;;;5028668;28;20550;-73
2022/01/02 11:17:47;;;;;;;6.07;5.57;;;10.20;99.90;;;;;;5026715;28;20280;-73
2022/01/02 11:20:21;;;;;;;5.68;5.18;;;10.70;99.90;;;;;;5030284;28;20208;-74
2022/01/02 11:23:14;;;;;;;7.28;5.20;;;12.40;99.90;;;;;;5026108;28;20271;-74
2022/01/02 11:25:56;;;;;;;6.95;6.28;;;13.70;99.90;;;;;;5028477;28;20165;-73
2022/01/02 11:28:40;;;;;;;5.50;5.00;;;14.40;99.90;;;;;;5025838;28;20184;-74
2022/01/02 11:31:09;;;;;;;5.78;5.38;;;13.40;99.90;;;;;;5018930;28;20231;-73
2022/01/02 11:33:41;;;;;;;5.80;5.35;;;12.30;99.90;;;;;;5031725;28;20172;-72
2022/01/02 11:36:23;;;;;;;5.93;5.43;;;11.50;99.90;;;;;;5025310;28;20661;-73
2022/01/02 11:39:00;;;;;;;5.75;5.32;;;10.80;99.90;;;;;;5027515;28;20276;-72
2022/01/02 11:41:44;;;;;;;5.78;5.38;;;10.00;99.90;;;;;;5025250;28;20275;-74
2022/01/02 11:44:20;;;;;;;6.63;6.13;;;9.10;99.90;;;;;;5032671;28;20172;-72
2022/01/02 11:46:56;;;;;;;5.93;5.43;;;9.10;99.90;;;;;;5026898;28;20275;-73
2022/01/02 11:49:41;;;;;;;5.78;5.22;;;9.40;99.90;;;;;;5034959;28;20182;-73
2022/01/02 11:52:21;;;;;;;5.82;5.43;;;9.60;99.90;;;;;;5038183;28;20250;-72
2022/01/02 11:54:49;;;;;;;5.65;5.25;;;9.60;99.90;;;;;;5027239;28;20230;-73
2022/01/02 11:57:15;;;;;;;5.57;5.07;;;10.00;99.90;;;;;;5019768;28;20552;-73
2022/01/02 11:59:43;;;;;;;5.40;5.00;;;10.40;99.90;;;;;;5026681;28;20204;-73
2022/01/02 12:02:18;;;;;;;5.80;5.35;;;10.80;99.90;;;;;;5024703;28;20205;-73
2022/01/02 12:05:02;;;;;;;6.57;5.28;;;10.90;99.90;;;;;;5022849;28;20173;-74
2022/01/02 12:07:37;;;;;;;6.63;6.13;;;10.50;99.90;;;;;;5024260;28;20641;-74
2022/01/02 12:10:20;;;;;;;6.70;6.10;;;10.10;99.90;;;;;;5028909;28;20552;-73
2022/01/02 12:13:02;;;;;;;5.88;5.45;;;9.70;99.90;;;;;;5028997;28;20178;-73
2022/01/02 12:15:31;;;;;;;5.68;5.28;;;9.70;99.90;;;;;;5018830;28;20230;-73
2022/01/02 12:18:33;;;;;;;6.43;5.90;;;9.30;99.90;;;;;;5024590;28;20180;-73
2022/01/02 12:21:04;;;;;;;6.28;5.68;;;9.10;99.90;;;;;;5025519;28;20243;-73
2022/01/02 12:23:36;;;;;;;6.45;5.82;;;9.30;99.90;;;;;;5031745;28;20177;-74
2022/01/02 12:26:13;;;;;;;6.50;6.00;;;9.50;99.90;;;;;;5028005;28;20176;-73
2022/01/02 12:28:56;;;;;;;6.60;6.10;;;9.90;99.90;;;;;;5025478;28;20180;-73
2022/01/02 12:31:28;;;;;;;6.20;5.70;;;10.00;99.90;;;;;;5020382;28;20192;-73
2022/01/02 12:33:58;;;;;;;5.95;5.45;;;10.10;99.90;;;;;;5023203;28;20215;-73
2022/01/02 12:36:23;;;;;;;5.80;5.40;;;10.40;99.90;;;;;;5018837;28;20165;-73
2022/01/02 12:38:55;;;;;;;6.07;5.68;;;10.50;99.90;;;;;;5019227;28;20633;-73
2022/01/02 12:41:29;;;;;;;6.10;5.70;;;10.40;99.90;;;;;;5025958;28;20192;-73
2022/01/02 12:43:56;;;;;;;5.85;5.43;;;10.30;99.90;;;;;;5027692;28;20206;-73
2022/01/02 12:46:39;;;;;;;6.05;5.55;;;10.30;99.90;;;;;;5030288;28;20184;-73
2022/01/02 12:49:15;;;;;;;6.78;6.28;;;9.70;99.90;;;;;;5026806;28;20180;-73
2022/01/02 12:51:46;;;;;;;6.40;5.82;;;9.60;99.90;;;;;;5029442;28;20235;-73
2022/01/02 12:54:14;;;;;;;7.30;6.43;;;9.60;99.90;;;;;;5025843;28;20226;-73
2022/01/02 12:56:50;;;;;;;6.53;5.93;;;9.60;99.90;;;;;;5028547;28;20213;-74
2022/01/02 12:59:30;;;;;;;6.93;5.80;;;9.50;99.90;;;;;;5027329;28;20208;-73
2022/01/02 13:02:10;;;;;;;6.10;5.60;;;9.30;99.90;;;;;;5019280;28;20204;-73
2022/01/02 13:04:47;;;;;;;5.85;5.40;;;9.30;99.90;;;;;;5021431;28;20213;-73
2022/01/02 13:07:14;;;;;;;6.10;5.60;;;9.40;99.90;;;;;;5026126;28;20184;-74